Time;durP1;ratioP1;P1;durP2;ratioP2;P2;SDS_P1;SDS_P2;PMS_P1;PMS_P2;Temp;Humidity;BMP_temperature;BMP_pressure;BME280_temperature;BME280_humidity;BME280_pressure;Samples;Min_cycle;Max_cycle;Signal;HPM_P1;HPM_P2
2021/05/13 00:00:52;;;;;;;7.05;2.30;;;;;;;11.32;73.32;98462.22;1870677;76;22105;-60
2021/05/13 00:03:34;;;;;;;5.35;2.35;;;;;;;11.27;73.44;98469.11;1869880;76;22111;-59
2021/05/13 00:06:10;;;;;;;4.30;1.92;;;;;;;11.21;73.75;98460.94;1870657;76;22140;-61
2021/05/13 00:08:45;;;;;;;4.28;1.85;;;;;;;11.15;74.32;98474.30;1889918;76;22171;-59
2021/05/13 00:11:20;;;;;;;4.10;1.75;;;;;;;11.07;74.59;98463.53;1870663;76;22179;-58
2021/05/13 00:13:56;;;;;;;3.95;2.20;;;;;;;11.04;74.83;98453.61;1870499;76;22582;-59
2021/05/13 00:16:33;;;;;;;4.60;2.12;;;;;;;10.96;75.28;98452.31;1870692;76;22116;-60
2021/05/13 00:19:12;;;;;;;5.33;2.30;;;;;;;10.92;75.54;98454.47;1854954;76;27879;-60
2021/05/13 00:21:47;;;;;;;6.05;2.00;;;;;;;10.91;75.91;98446.28;1889942;76;22152;-58
2021/05/13 00:24:21;;;;;;;5.15;1.90;;;;;;;10.90;76.08;98447.16;1870676;76;22116;-60
2021/05/13 00:26:59;;;;;;;4.10;2.20;;;;;;;10.88;76.41;98455.75;1870783;76;22615;-58
2021/05/13 00:29:33;;;;;;;4.42;1.98;;;;;;;10.84;76.81;98443.28;1870572;76;22144;-59
2021/05/13 00:32:13;;;;;;;6.85;1.98;;;;;;;10.79;77.14;98443.27;1889981;76;22168;-59
2021/05/13 00:34:54;;;;;;;3.20;1.72;;;;;;;10.79;77.32;98441.13;1889860;76;22188;-58
2021/05/13 00:37:29;;;;;;;4.33;1.98;;;;;;;10.79;77.55;98441.13;1870638;76;22559;-58
2021/05/13 00:40:07;;;;;;;5.78;2.12;;;;;;;10.78;77.62;98439.38;1870519;76;22141;-58
2021/05/13 00:42:43;;;;;;;6.45;2.55;;;;;;;10.78;77.81;98435.52;1870538;76;22145;-58
2021/05/13 00:45:19;;;;;;;4.75;2.02;;;;;;;10.75;77.98;98429.92;1870643;76;22109;-59
2021/05/13 00:48:05;;;;;;;4.92;2.08;;;;;;;10.74;78.18;98423.48;1889930;76;22563;-59
2021/05/13 00:50:40;;;;;;;4.55;1.98;;;;;;;10.71;78.45;98432.08;1870742;76;22113;-60
2021/05/13 00:53:17;;;;;;;3.87;1.92;;;;;;;10.70;78.63;98420.45;1854592;76;27905;-59
2021/05/13 00:55:53;;;;;;;4.97;2.25;;;;;;;10.71;78.74;98415.30;1889904;76;22112;-60
2021/05/13 00:58:38;;;;;;;5.92;2.40;;;;;;;10.71;78.65;98413.13;1890017;76;22638;-59
2021/05/13 01:01:16;;;;;;;4.97;2.45;;;;;;;10.65;78.75;98416.13;1889947;76;22112;-60
2021/05/13 01:03:51;;;;;;;5.33;2.40;;;;;;;10.56;79.17;98415.28;1889898;76;22108;-59
2021/05/13 01:06:26;;;;;;;6.17;2.10;;;;;;;10.50;79.35;98408.36;1854779;76;27892;-58
2021/05/13 01:09:00;;;;;;;4.80;2.55;;;;;;;10.53;79.64;98408.39;1870659;76;22140;-61
2021/05/13 01:11:40;;;;;;;6.33;2.42;;;;;;;10.51;79.89;98409.25;1870653;76;22536;-59
2021/05/13 01:19:54;;;;;;;5.05;2.80;;;;;;;10.39;80.39;98415.23;1889960;76;22562;-57
2021/05/13 01:22:29;;;;;;;3.87;2.40;;;;;;;10.38;80.61;98416.06;1870516;76;22168;-58
2021/05/13 01:25:15;;;;;;;3.67;2.20;;;;;;;10.32;80.65;98413.48;1760494;81;21567;-58
2021/05/13 01:28:02;;;;;;;3.95;2.30;;;;;;;10.34;80.81;98412.62;1870664;76;22141;-58
2021/05/13 01:30:37;;;;;;;7.10;2.20;;;;;;;10.31;81.05;98410.05;1889953;76;22128;-58
2021/05/13 01:33:13;;;;;;;4.97;2.95;;;;;;;10.28;81.03;98409.16;1870666;76;22153;-58
2021/05/13 01:35:51;;;;;;;9.05;2.65;;;;;;;10.24;81.47;98411.28;1870593;76;22185;-58
2021/05/13 01:38:26;;;;;;;7.00;2.47;;;;;;;10.21;81.68;98400.52;1870639;76;22113;-61
2021/05/13 01:41:02;;;;;;;5.65;3.17;;;;;;;10.18;81.89;98397.94;1870722;76;22133;-59
2021/05/13 01:43:38;;;;;;;4.92;2.50;;;;;;;10.13;82.22;98399.20;1870613;76;22160;-60
2021/05/13 01:46:13;;;;;;;5.92;2.58;;;;;;;10.08;82.43;98395.75;1870625;76;22185;-58
2021/05/13 01:48:58;;;;;;;9.03;2.70;;;;;;;9.99;82.69;98400.42;1827520;78;21095;-59
2021/05/13 01:51:33;;;;;;;6.72;2.98;;;;;;;9.97;83.37;98395.72;1870673;76;22141;-60
2021/05/13 01:54:07;;;;;;;5.08;3.52;;;;;;;9.95;83.92;98396.56;1870682;76;22109;-59
2021/05/13 01:56:43;;;;;;;7.03;2.72;;;;;;;9.90;84.20;98394.40;1870797;76;22125;-59
2021/05/13 01:59:18;;;;;;;7.17;2.95;;;;;;;9.86;84.51;98401.67;1854692;76;28012;-59
2021/05/13 02:01:53;;;;;;;9.88;3.55;;;;;;;9.87;84.69;98400.80;1870623;76;22168;-59
2021/05/13 02:04:29;;;;;;;7.10;3.20;;;;;;;9.85;84.75;98403.83;1870663;76;22145;-64
2021/05/13 02:07:04;;;;;;;14.15;6.87;;;;;;;9.83;84.96;98401.23;1870672;76;22160;-58
2021/05/13 02:09:41;;;;;;;10.30;6.83;;;;;;;9.80;85.05;98398.64;1873854;76;27917;-59
2021/05/13 02:12:16;;;;;;;9.85;7.37;;;;;;;9.83;85.21;98402.95;1889948;76;22140;-59
2021/05/13 02:14:51;;;;;;;7.53;5.45;;;;;;;9.81;85.45;98407.23;1870650;76;22572;-59
2021/05/13 02:17:25;;;;;;;9.48;5.53;;;;;;;9.77;85.55;98405.93;1889941;76;22200;-59
2021/05/13 02:20:00;;;;;;;8.30;4.97;;;;;;;9.74;85.89;98405.92;1870674;76;22149;-62
2021/05/13 02:22:36;;;;;;;6.72;4.03;;;;;;;9.75;86.00;98410.20;1873876;76;28359;-59
2021/05/13 02:25:13;;;;;;;6.10;3.80;;;;;;;9.80;86.11;98406.38;1819467;77;28009;-60
2021/05/13 02:27:47;;;;;;;6.53;3.40;;;;;;;9.86;86.03;98404.24;1873937;76;27928;-60
2021/05/13 02:30:22;;;;;;;5.62;3.85;;;;;;;9.88;86.07;98403.83;1870670;76;22112;-62
2021/05/13 02:32:57;;;;;;;7.58;3.33;;;;;;;9.84;86.10;98402.94;1873876;76;27888;-60
2021/05/13 02:35:32;;;;;;;7.05;3.92;;;;;;;9.87;86.12;98400.80;1889942;76;22144;-59
2021/05/13 02:38:26;;;;;;;7.17;3.40;;;;;;;9.80;86.37;98399.93;1869575;76;22224;-59
2021/05/13 02:41:01;;;;;;;6.17;3.30;;;;;;;9.76;86.51;98397.75;1870694;76;22129;-59
2021/05/13 02:43:47;;;;;;;7.47;3.90;;;;;;;9.68;86.64;98394.27;1760439;81;21145;-60
2021/05/13 02:46:22;;;;;;;11.70;4.10;;;;;;;9.73;86.96;98396.88;1870616;76;22140;-60
2021/05/13 02:48:57;;;;;;;6.17;3.70;;;;;;;9.71;86.97;98394.28;1854590;76;27853;-60
2021/05/13 02:51:33;;;;;;;6.20;3.40;;;;;;;9.73;87.13;98397.73;1854604;76;38640;-60
2021/05/13 02:54:08;;;;;;;11.15;4.17;;;;;;;9.78;87.14;98396.48;1889939;76;22586;-61
2021/05/13 02:56:43;;;;;;;7.47;3.98;;;;;;;9.77;87.13;98399.48;1870657;76;22148;-60
2021/05/13 02:59:18;;;;;;;7.58;4.33;;;;;;;9.78;87.10;98393.47;1870710;76;22127;-59
2021/05/13 03:01:53;;;;;;;8.38;4.22;;;;;;;9.78;87.16;98394.75;1870575;76;22574;-60
2021/05/13 03:04:28;;;;;;;8.15;4.10;;;;;;;9.81;87.17;98396.48;1889893;76;22559;-60
2021/05/13 03:07:04;;;;;;;9.33;4.30;;;;;;;9.83;87.12;98402.52;1873864;76;28261;-59
2021/05/13 03:09:47;;;;;;;7.83;4.72;;;;;;;9.91;87.11;98403.84;1870673;76;22113;-59
2021/05/13 03:12:19;;;;;;;10.18;4.45;;;;;;;9.95;86.91;98398.71;1889904;76;22152;-60
2021/05/13 03:14:57;;;;;;;8.13;4.40;;;;;;;10.01;86.75;98405.60;1854630;76;27844;-61
2021/05/13 03:17:38;;;;;;;9.58;4.75;;;;;;;10.14;86.46;98402.20;1889908;76;22152;-60
2021/05/13 03:20:17;;;;;;;7.97;4.80;;;;;;;10.22;86.13;98403.09;1854670;76;27916;-61
2021/05/13 03:22:55;;;;;;;7.55;4.30;;;;;;;10.29;85.80;98401.88;1870676;76;22152;-60
2021/05/13 03:25:33;;;;;;;10.63;5.60;;;;;;;10.36;85.63;98401.04;1889920;76;22545;-62
2021/05/13 03:28:09;;;;;;;14.78;6.22;;;;;;;10.46;85.27;98406.66;1870465;76;22193;-61
2021/05/13 03:30:45;;;;;;;10.70;8.05;;;;;;;10.55;85.03;98404.07;1854771;76;27915;-59
2021/05/13 03:33:31;;;;;;;8.50;5.83;;;;;;;10.58;84.53;98409.27;1827815;78;21154;-59
2021/05/13 03:36:06;;;;;;;10.65;7.60;;;;;;;10.67;84.50;98401.09;1870663;76;22120;-59
2021/05/13 03:38:41;;;;;;;10.40;6.50;;;;;;;10.81;84.00;98410.98;1870646;76;22112;-58
2021/05/13 03:41:15;;;;;;;11.75;6.62;;;;;;;10.87;83.11;98411.02;1870796;76;22145;-61
2021/05/13 03:43:50;;;;;;;8.25;5.28;;;;;;;10.91;82.89;98411.43;1870654;76;22145;-63
2021/05/13 03:46:25;;;;;;;8.75;5.40;;;;;;;10.96;82.69;98411.00;1870763;76;22141;-60
2021/05/13 03:48:59;;;;;;;9.03;5.37;;;;;;;11.02;82.59;98414.89;1889977;76;22136;-61
2021/05/13 03:51:34;;;;;;;9.25;4.90;;;;;;;11.06;82.26;98417.89;1870632;76;22137;-58
2021/05/13 03:54:09;;;;;;;12.80;5.03;;;;;;;11.07;82.04;98426.52;1870706;76;22152;-62
2021/05/13 03:56:44;;;;;;;8.03;4.35;;;;;;;11.07;81.72;98416.20;1870634;76;22129;-61
2021/05/13 03:59:19;;;;;;;9.53;5.62;;;;;;;11.07;81.70;98424.80;1870677;76;22116;-61
2021/05/13 04:04:35;;;;;;;8.50;4.78;;;;;;;11.04;81.82;98423.51;1889896;76;22148;-60
2021/05/13 04:07:09;;;;;;;8.48;4.83;;;;;;;11.08;81.70;98428.23;1870759;76;22133;-60
2021/05/13 04:09:45;;;;;;;7.90;4.75;;;;;;;11.14;81.42;98423.49;1889934;76;22112;-62
2021/05/13 04:12:21;;;;;;;6.60;4.70;;;;;;;11.18;80.96;98420.91;1889916;76;22168;-59
2021/05/13 04:14:58;;;;;;;10.60;5.20;;;;;;;11.29;80.20;98420.90;1854646;76;27956;-61
2021/05/13 04:17:33;;;;;;;7.83;5.03;;;;;;;11.43;79.03;98424.78;1870582;76;22558;-64
2021/05/13 04:20:09;;;;;;;8.05;5.15;;;;;;;11.57;78.89;98423.45;1889944;76;22571;-62
2021/05/13 04:22:54;;;;;;;9.65;4.92;;;;;;;11.62;78.61;98420.43;1861461;77;21126;-60
2021/05/13 04:25:30;;;;;;;8.33;5.30;;;;;;;11.78;78.03;98415.67;1870781;76;22117;-62
2021/05/13 04:28:05;;;;;;;10.20;5.78;;;;;;;11.82;77.79;98418.66;1854656;76;28360;-63
2021/05/13 04:30:41;;;;;;;9.35;5.37;;;;;;;11.98;77.21;98414.76;1854556;76;28386;-61
2021/05/13 04:33:15;;;;;;;10.58;5.60;;;;;;;12.11;76.31;98416.02;1870640;76;22531;-59
2021/05/13 04:35:51;;;;;;;11.65;5.70;;;;;;;12.22;75.43;98408.20;1870712;76;22117;-62
2021/05/13 04:38:27;;;;;;;10.45;5.40;;;;;;;12.27;74.99;98411.62;1870403;76;22164;-60
2021/05/13 04:41:02;;;;;;;8.90;5.12;;;;;;;12.36;74.54;98409.01;1870668;76;22571;-61
2021/05/13 04:43:37;;;;;;;11.12;4.87;;;;;;;12.44;73.85;98414.14;1889923;76;22559;-62
2021/05/13 04:46:12;;;;;;;9.75;6.10;;;;;;;12.52;73.02;98414.10;1854736;76;28314;-59
2021/05/13 04:51:29;;;;;;;9.28;4.22;;;;;;;12.66;72.33;98404.95;1854846;76;27942;-62
2021/05/13 04:54:05;;;;;;;8.95;4.28;;;;;;;13.01;71.29;98417.65;1889944;76;22144;-61
2021/05/13 04:56:50;;;;;;;11.15;4.65;;;;;;;13.22;69.52;98414.02;1849814;77;21556;-62
2021/05/13 04:59:25;;;;;;;6.83;4.67;;;;;;;13.51;68.67;98413.80;1856737;76;22573;-62
2021/05/13 05:01:59;;;;;;;8.03;3.85;;;;;;;13.56;66.22;98410.73;1848890;76;22156;-62
2021/05/13 05:04:37;;;;;;;10.45;5.60;;;;;;;13.79;66.38;98413.08;1851144;76;22634;-60
2021/05/13 05:07:11;;;;;;;7.80;4.35;;;;;;;14.11;64.30;98409.23;1840219;76;22178;-61
2021/05/13 05:09:46;;;;;;;9.73;5.53;;;;;;;14.24;63.81;98406.05;1855806;76;22199;-61
2021/05/13 05:12:22;;;;;;;9.43;5.67;;;;;;;14.47;62.72;98409.20;1842567;76;27927;-63
2021/05/13 05:14:58;;;;;;;11.53;5.60;;;;;;;14.32;61.54;98418.48;1811284;76;38829;-59
2021/05/13 05:17:38;;;;;;;9.05;4.83;;;;;;;14.04;62.29;98411.48;1855562;76;22159;-62
2021/05/13 05:20:15;;;;;;;6.75;3.95;;;;;;;14.11;61.97;98410.09;1852866;76;22206;-61
2021/05/13 05:23:01;;;;;;;13.43;5.30;;;;;;;14.14;61.58;98405.75;1814134;78;21232;-61
2021/05/13 05:25:38;;;;;;;6.97;4.08;;;;;;;14.20;60.92;98414.33;1852305;76;20123;-64
2021/05/13 05:28:14;;;;;;;11.22;5.62;;;;;;;14.19;61.34;98404.80;1864058;76;22258;-65
2021/05/13 05:30:48;;;;;;;9.60;5.50;;;;;;;14.42;61.09;98416.19;1831796;76;28099;-63
2021/05/13 05:33:23;;;;;;;8.25;4.78;;;;;;;15.01;60.48;98404.98;1871380;76;22171;-60
2021/05/13 05:35:57;;;;;;;9.00;4.80;;;;;;;16.38;57.07;98403.33;1889557;76;22163;-63
2021/05/13 05:38:38;;;;;;;8.33;4.72;;;;;;;17.26;53.51;98410.02;1869419;76;22160;-63
2021/05/13 05:41:13;;;;;;;9.35;4.92;;;;;;;17.90;51.14;98407.50;1856963;76;22171;-63
2021/05/13 05:43:47;;;;;;;7.65;4.60;;;;;;;18.06;50.04;98404.02;1871084;76;22754;-63
2021/05/13 05:46:22;;;;;;;7.62;4.20;;;;;;;18.14;49.46;98404.64;1867055;76;22207;-65
2021/05/13 05:48:57;;;;;;;6.58;3.65;;;;;;;18.30;47.95;98414.22;1889911;76;22147;-64
2021/05/13 05:51:32;;;;;;;5.53;3.33;;;;;;;18.17;47.93;98411.11;1870598;76;22153;-60
2021/05/13 05:54:07;;;;;;;5.72;3.10;;;;;;;18.18;48.16;98408.89;1870439;76;22145;-65
2021/05/13 05:56:41;;;;;;;6.50;3.12;;;;;;;18.36;47.44;98417.49;1870550;76;22149;-63
2021/05/13 05:59:16;;;;;;;9.13;3.05;;;;;;;18.47;46.70;98413.70;1858317;76;22625;-63
2021/05/13 06:01:51;;;;;;;7.40;2.90;;;;;;;18.56;45.75;98415.59;1870558;76;22551;-63
2021/05/13 06:04:25;;;;;;;5.50;3.00;;;;;;;18.98;45.78;98415.64;1870509;76;22128;-62
2021/05/13 06:07:11;;;;;;;5.92;2.60;;;;;;;19.43;44.32;98412.44;1760438;81;21220;-65
2021/05/13 06:09:46;;;;;;;7.80;2.55;;;;;;;19.73;42.57;98420.58;1870605;76;22141;-64
2021/05/13 06:12:22;;;;;;;10.58;3.08;;;;;;;20.64;41.73;98413.83;1870329;76;20097;-63
2021/05/13 06:14:56;;;;;;;7.30;2.05;;;;;;;21.91;39.69;98424.36;1889874;76;22570;-63
2021/05/13 06:17:31;;;;;;;5.80;2.20;;;;;;;21.94;37.94;98415.48;1870630;76;22175;-65
2021/05/13 06:20:10;;;;;;;4.53;2.20;;;;;;;22.30;37.78;98423.05;1860607;76;22151;-68
2021/05/13 06:22:44;;;;;;;10.15;2.95;;;;;;;23.35;36.33;98427.34;1870561;76;22247;-67
2021/05/13 06:25:21;;;;;;;6.90;2.55;;;;;;;23.17;35.29;98416.78;1864185;76;22614;-63
2021/05/13 06:28:01;;;;;;;5.65;1.55;;;;;;;23.44;34.83;98421.63;1869688;76;22185;-64
2021/05/13 06:30:38;;;;;;;5.47;2.08;;;;;;;24.24;34.55;98425.42;1870433;76;22240;-63
2021/05/13 06:33:12;;;;;;;5.33;1.77;;;;;;;23.67;32.50;98439.37;1869387;76;22137;-65
2021/05/13 06:35:48;;;;;;;3.67;1.60;;;;;;;22.68;34.37;98436.22;1854557;76;27873;-63
2021/05/13 06:38:23;;;;;;;4.05;1.30;;;;;;;22.27;35.39;98428.46;1889733;76;22170;-63
2021/05/13 06:41:18;;;;;;;5.20;1.32;;;;;;;21.83;35.47;98422.50;1873137;76;22205;-65
2021/05/13 06:44:13;;;;;;;4.62;1.25;;;;;;;20.98;37.00;98419.43;1872218;75;22610;-63
2021/05/13 06:46:47;;;;;;;2.75;1.15;;;;;;;19.98;38.69;98443.75;1864826;76;22187;-64
2021/05/13 06:49:22;;;;;;;2.50;1.30;;;;;;;20.11;38.97;98419.66;1839591;76;22296;-65
2021/05/13 06:51:56;;;;;;;4.08;1.20;;;;;;;21.39;37.58;98431.35;1845712;76;22186;-65
2021/05/13 06:54:31;;;;;;;3.40;1.20;;;;;;;22.41;35.93;98436.17;1870399;76;22145;-63
2021/05/13 06:57:06;;;;;;;4.47;1.77;;;;;;;22.27;35.55;98453.91;1854526;76;27898;-65
2021/05/13 06:59:52;;;;;;;4.75;1.27;;;;;;;21.24;36.53;98421.02;1730461;83;21157;-65
2021/05/13 07:02:27;;;;;;;5.33;1.47;;;;;;;21.18;37.02;98430.91;1870443;76;22153;-65
2021/05/13 07:05:11;;;;;;;3.80;1.40;;;;;;;20.93;37.82;98427.94;1925266;73;22104;-61
2021/05/13 07:07:57;;;;;;;2.50;1.10;;;;;;;20.97;37.72;98443.12;1865050;77;21102;-64
2021/05/13 07:10:34;;;;;;;2.65;1.30;;;;;;;20.96;37.51;98417.78;1858752;76;22538;-59
2021/05/13 07:13:07;;;;;;;4.70;1.12;;;;;;;20.97;38.11;98424.30;1851525;76;27893;-63
2021/05/13 07:15:42;;;;;;;2.30;1.10;;;;;;;21.50;37.29;98395.48;1868981;76;22667;-64
2021/05/13 07:18:36;;;;;;;3.30;1.42;;;;;;;21.53;36.66;98423.38;1871874;75;22282;-63
2021/05/13 07:21:13;;;;;;;2.65;1.17;;;;;;;20.36;38.49;98433.19;1869493;76;22215;-63
2021/05/13 07:23:48;;;;;;;3.30;1.30;;;;;;;19.82;39.54;98424.66;1850027;76;22589;-63
2021/05/13 07:26:24;;;;;;;5.55;1.60;;;;;;;19.76;40.04;98417.00;1834753;76;28092;-63
2021/05/13 07:29:00;;;;;;;4.65;1.57;;;;;;;19.94;39.63;98416.80;1848380;76;22609;-61
2021/05/13 07:31:34;;;;;;;3.52;1.40;;;;;;;20.50;39.37;98391.56;1850184;76;22588;-63
2021/05/13 07:34:15;;;;;;;4.97;1.30;;;;;;;22.02;36.80;98404.17;1933334;73;22515;-64
2021/05/13 07:36:49;;;;;;;4.85;1.70;;;;;;;22.38;35.32;98410.88;1870518;76;22128;-64
2021/05/13 07:39:25;;;;;;;6.85;1.90;;;;;;;21.08;37.62;98408.11;1834941;77;22180;-63
2021/05/13 07:42:11;;;;;;;2.92;1.47;;;;;;;19.97;39.52;98419.77;1728748;83;21134;-64
2021/05/13 07:44:52;;;;;;;3.50;1.32;;;;;;;19.23;41.35;98387.81;1869737;76;22148;-64
2021/05/13 07:47:28;;;;;;;4.42;1.42;;;;;;;19.22;41.06;98397.86;1889905;76;22163;-63
2021/05/13 07:50:06;;;;;;;5.30;1.55;;;;;;;18.90;41.96;98408.50;1849696;76;22210;-65
2021/05/13 07:52:40;;;;;;;3.95;1.55;;;;;;;18.01;44.26;98417.19;1870714;76;22120;-63
2021/05/13 07:55:21;;;;;;;7.37;1.80;;;;;;;17.48;46.12;98416.41;1861829;76;22266;-65
2021/05/13 07:57:56;;;;;;;4.15;1.45;;;;;;;16.81;47.04;98414.13;1855628;76;22152;-64
2021/05/13 08:00:31;;;;;;;4.97;1.50;;;;;;;16.87;46.62;98410.10;1873755;76;28293;-65
2021/05/13 08:03:20;;;;;;;3.15;1.50;;;;;;;17.37;45.99;98397.55;1861486;77;21114;-63
2021/05/13 08:06:22;;;;;;;2.98;1.27;;;;;;;17.63;43.98;98404.73;1872661;76;22238;-64
2021/05/13 08:09:04;;;;;;;3.62;1.40;;;;;;;17.58;44.46;98394.41;1889796;76;22191;-64
2021/05/13 08:11:39;;;;;;;4.60;1.60;;;;;;;17.77;44.38;98386.08;1870434;76;22150;-65
2021/05/13 08:14:14;;;;;;;3.77;1.45;;;;;;;19.67;40.68;98419.49;1870544;76;22550;-64
2021/05/13 08:16:54;;;;;;;3.35;1.40;;;;;;;19.72;39.99;98403.63;1869710;76;22169;-66
2021/05/13 08:19:40;;;;;;;4.28;1.27;;;;;;;19.72;39.99;98403.63;1760567;81;21307;-65
2021/05/13 08:22:15;;;;;;;2.98;1.42;;;;;;;19.90;39.17;98393.80;1870467;76;22168;-64
2021/05/13 08:24:58;;;;;;;5.47;1.52;;;;;;;19.93;39.66;98414.64;1889892;76;22192;-65
2021/05/13 08:27:39;;;;;;;3.50;1.60;;;;;;;19.78;39.77;98381.61;1889859;76;22598;-65
2021/05/13 08:30:23;;;;;;;4.10;1.40;;;;;;;19.95;38.67;98386.63;1889764;76;22240;-65
2021/05/13 08:33:09;;;;;;;3.27;1.30;;;;;;;19.68;38.69;98411.18;1861352;77;21678;-66
2021/05/13 08:35:44;;;;;;;3.35;1.40;;;;;;;19.54;39.27;98390.70;1873906;76;28334;-65
2021/05/13 08:38:20;;;;;;;3.90;1.50;;;;;;;18.83;40.35;98389.56;1870421;76;22215;-66
2021/05/13 08:41:05;;;;;;;5.83;1.30;;;;;;;18.41;41.36;98450.88;1827451;78;21165;-65
2021/05/13 08:43:49;;;;;;;5.30;1.37;;;;;;;18.40;42.01;98426.96;1873767;76;38607;-65
2021/05/13 08:46:48;;;;;;;3.70;1.77;;;;;;;18.66;41.82;98405.72;1873050;76;22162;-64
2021/05/13 08:49:25;;;;;;;8.35;1.82;;;;;;;19.00;40.85;98410.77;1866656;76;22214;-65
2021/05/13 08:52:00;;;;;;;3.15;1.32;;;;;;;18.92;40.83;98425.00;1878916;76;22178;-65
2021/05/13 08:54:35;;;;;;;3.20;1.50;;;;;;;18.38;42.48;98388.72;1870623;76;22558;-65
2021/05/13 08:57:17;;;;;;;6.87;1.60;;;;;;;18.03;43.17;98405.41;1869652;76;22234;-65
2021/05/13 08:59:54;;;;;;;5.90;1.90;;;;;;;17.81;43.29;98416.46;1854607;76;27872;-63
2021/05/13 09:02:30;;;;;;;5.55;1.87;;;;;;;17.23;44.09;98424.45;1851290;76;22606;-63
2021/05/13 09:05:07;;;;;;;5.12;1.80;;;;;;;16.81;44.41;98416.74;1854370;76;28319;-66
2021/05/13 09:07:41;;;;;;;4.12;1.55;;;;;;;16.61;45.55;98408.92;1870542;76;22140;-66
2021/05/13 09:10:17;;;;;;;2.83;1.57;;;;;;;16.70;45.76;98396.97;1870569;76;22145;-64
2021/05/13 09:12:53;;;;;;;4.70;1.42;;;;;;;16.66;45.48;98404.46;1889828;76;22140;-64
2021/05/13 09:15:32;;;;;;;3.70;1.27;;;;;;;16.60;45.84;98400.67;1850600;77;22144;-70
2021/05/13 09:18:11;;;;;;;7.45;1.60;;;;;;;16.47;44.79;98401.84;1868771;76;22215;-66
2021/05/13 09:21:04;;;;;;;2.92;1.70;;;;;;;16.41;44.21;98379.82;1795034;80;21174;-65
2021/05/13 09:23:39;;;;;;;2.77;1.47;;;;;;;16.44;44.89;98418.39;1870506;76;22180;-67
2021/05/13 09:26:19;;;;;;;2.95;1.62;;;;;;;16.44;45.29;98418.39;1870533;76;22624;-65
2021/05/13 09:29:14;;;;;;;3.17;1.65;;;;;;;16.63;45.03;98360.22;1870658;76;22156;-64
2021/05/13 09:32:21;;;;;;;2.77;1.37;;;;;;;16.73;44.99;98382.16;1875403;76;22664;-64
2021/05/13 09:35:04;;;;;;;5.92;1.60;;;;;;;17.08;44.27;98361.34;1870568;76;22555;-63
2021/05/13 09:37:55;;;;;;;4.50;1.60;;;;;;;17.22;44.65;98405.31;1834940;77;22168;-72
2021/05/13 09:40:44;;;;;;;;;;;;;;;16.89;44.69;98396.56;1731219;82;21283;-66
2021/05/13 09:43:21;;;;;;;3.55;1.82;;;;;;;16.86;45.52;98365.37;1889846;76;22148;-66
2021/05/13 09:46:02;;;;;;;4.10;1.80;;;;;;;17.13;45.29;98372.97;1848949;76;28120;-64
2021/05/13 09:48:45;;;;;;;7.05;2.05;;;;;;;17.42;44.88;98363.53;1869720;76;22185;-68
2021/05/13 09:51:33;;;;;;;3.50;1.50;;;;;;;17.22;43.95;98371.41;1870809;76;22168;-68
2021/05/13 09:54:15;;;;;;;3.30;1.90;;;;;;;16.75;44.75;98378.63;1870593;76;22192;-67
2021/05/13 09:56:54;;;;;;;3.12;1.55;;;;;;;16.55;46.21;98386.05;1855359;76;22168;-65
2021/05/13 10:09:55;;;;;;;3.12;1.60;;;;;;;16.24;46.92;98394.52;1896049;76;22141;-65
2021/05/13 10:12:42;;;;;;;4.62;1.77;;;;;;;16.34;46.86;98387.38;1867189;77;21164;-66
2021/05/13 10:15:17;;;;;;;3.85;2.17;;;;;;;16.36;45.76;98373.86;1870500;76;22152;-67
2021/05/13 10:18:02;;;;;;;7.20;2.05;;;;;;;16.16;45.46;98375.16;1883249;76;22596;-65
2021/05/13 10:20:37;;;;;;;4.35;1.90;;;;;;;16.15;45.32;98375.18;1855107;76;22304;-65
2021/05/13 10:23:14;;;;;;;6.62;2.05;;;;;;;16.14;45.89;98373.03;1835503;76;38756;-65
2021/05/13 10:25:50;;;;;;;3.60;2.08;;;;;;;16.41;46.15;98381.12;1870455;76;22204;-69
2021/05/13 10:28:33;;;;;;;7.97;1.95;;;;;;;16.36;45.91;98390.78;1869707;76;22165;-64
2021/05/13 10:31:07;;;;;;;8.13;2.37;;;;;;;16.36;46.80;98377.77;1863716;76;22155;-65
2021/05/13 10:33:53;;;;;;;3.20;1.92;;;;;;;16.57;46.05;98377.30;1812586;77;21181;-68
2021/05/13 10:36:28;;;;;;;3.92;2.20;;;;;;;16.92;45.46;98379.13;1889830;76;22155;-67
2021/05/13 10:39:11;;;;;;;5.80;2.05;;;;;;;16.82;45.37;98352.02;1870403;76;22176;-67
2021/05/13 10:41:46;;;;;;;6.33;2.25;;;;;;;16.76;45.28;98343.00;1889870;76;22180;-67
2021/05/13 10:44:36;;;;;;;7.20;2.10;;;;;;;16.64;44.90;98368.46;1791654;80;21271;-65
2021/05/13 10:47:17;;;;;;;6.45;2.37;;;;;;;16.60;45.00;98382.44;1889883;76;22269;-65
2021/05/13 10:49:52;;;;;;;4.05;2.17;;;;;;;16.51;45.43;98359.19;1870648;76;22136;-69
2021/05/13 10:52:36;;;;;;;4.35;1.95;;;;;;;16.56;45.29;98351.28;1889835;76;22550;-68
2021/05/13 10:55:10;;;;;;;5.12;1.80;;;;;;;16.74;45.19;98370.83;1859224;76;22171;-63
2021/05/13 10:57:49;;;;;;;4.03;2.00;;;;;;;16.67;44.69;98321.48;1859517;76;22194;-63
2021/05/13 11:00:26;;;;;;;3.85;2.08;;;;;;;16.66;43.89;98361.47;1887329;76;22159;-65
2021/05/13 11:03:06;;;;;;;3.27;1.72;;;;;;;16.63;43.38;98364.13;1868655;76;22116;-64
2021/05/13 11:05:43;;;;;;;3.40;1.70;;;;;;;16.61;43.47;98365.05;1870360;76;22235;-66
2021/05/13 11:08:23;;;;;;;3.80;2.00;;;;;;;16.63;43.70;98352.40;1854728;76;27923;-65
2021/05/13 11:11:01;;;;;;;5.97;2.08;;;;;;;16.76;43.86;98356.03;1870582;76;22125;-66
2021/05/13 11:13:46;;;;;;;3.58;2.33;;;;;;;16.73;44.39;98365.22;1844812;76;22202;-64
2021/05/13 11:16:48;;;;;;;4.10;2.12;;;;;;;16.77;44.67;98334.30;1870638;76;22148;-63
2021/05/13 11:19:24;;;;;;;6.42;2.47;;;;;;;16.90;44.05;98347.02;1870537;76;22574;-66
2021/05/13 11:22:03;;;;;;;7.00;2.10;;;;;;;17.08;43.15;98335.27;1870472;76;22149;-66
2021/05/13 11:24:41;;;;;;;2.92;1.87;;;;;;;16.95;42.60;98358.64;1870523;76;22105;-65
2021/05/13 11:27:28;;;;;;;4.97;2.15;;;;;;;16.93;42.85;98352.60;1827639;77;21103;-65
2021/05/13 11:30:06;;;;;;;8.48;2.10;;;;;;;16.97;43.27;98352.95;1870512;76;22150;-65
2021/05/13 11:32:40;;;;;;;7.22;1.90;;;;;;;16.93;43.71;98355.21;1870628;76;22185;-69
2021/05/13 11:35:19;;;;;;;5.35;2.15;;;;;;;17.05;43.72;98349.70;1870607;76;22172;-65
2021/05/13 11:37:55;;;;;;;3.90;1.98;;;;;;;17.23;43.67;98338.39;1870432;76;22193;-62
2021/05/13 11:40:30;;;;;;;7.50;2.30;;;;;;;17.37;43.51;98355.83;1870577;76;22117;-67
2021/05/13 11:43:17;;;;;;;3.75;1.80;;;;;;;17.25;43.26;98365.27;1889815;76;22592;-68
2021/05/13 11:46:13;;;;;;;4.70;2.25;;;;;;;17.08;43.46;98321.39;1857586;75;27911;-65
2021/05/13 11:48:49;;;;;;;4.37;1.95;;;;;;;17.10;44.12;98311.78;1884897;76;22570;-66
2021/05/13 11:51:27;;;;;;;7.80;2.17;;;;;;;17.47;43.68;98348.62;1889944;76;20097;-71
2021/05/13 11:54:07;;;;;;;4.10;1.90;;;;;;;17.58;43.22;98349.20;1870772;76;22121;-66
2021/05/13 11:56:49;;;;;;;8.65;2.00;;;;;;;17.44;43.37;98328.69;1889929;76;22708;-66
2021/05/13 11:59:24;;;;;;;5.05;1.98;;;;;;;17.25;43.74;98331.36;1870604;76;22563;-67
2021/05/13 12:02:02;;;;;;;8.28;2.37;;;;;;;17.05;44.34;98339.27;1827146;76;28405;-66
2021/05/13 12:04:47;;;;;;;5.08;2.33;;;;;;;16.96;45.06;98346.00;1794941;79;21134;-67
2021/05/13 12:07:21;;;;;;;6.30;2.30;;;;;;;16.87;44.69;98286.31;1870572;76;22184;-70
2021/05/13 12:09:55;;;;;;;3.83;2.12;;;;;;;16.80;44.99;98345.98;1870598;76;22253;-70
2021/05/13 12:12:30;;;;;;;4.67;1.98;;;;;;;16.77;45.09;98348.64;1889830;76;22581;-65
2021/05/13 12:15:16;;;;;;;4.20;2.20;;;;;;;16.73;45.51;98326.14;1856964;76;22626;-69
2021/05/13 12:17:50;;;;;;;7.45;2.30;;;;;;;16.63;45.35;98328.95;1854731;76;38659;-67
2021/05/13 12:20:38;;;;;;;5.50;2.40;;;;;;;16.53;45.76;98352.20;1827590;78;21125;-64
2021/05/13 12:23:14;;;;;;;6.65;2.22;;;;;;;16.41;45.86;98378.09;1889841;76;22199;-65
2021/05/13 12:25:48;;;;;;;4.87;2.37;;;;;;;16.15;46.62;98359.11;1851806;76;22577;-64
2021/05/13 12:28:29;;;;;;;4.33;2.02;;;;;;;16.02;47.54;98368.92;1869717;76;22169;-67
2021/05/13 12:31:04;;;;;;;4.00;2.17;;;;;;;16.01;47.95;98326.03;1850744;76;22211;-62
2021/05/13 12:33:40;;;;;;;4.92;2.08;;;;;;;16.05;48.21;98367.58;1889850;76;22228;-70
2021/05/13 12:36:26;;;;;;;5.33;2.10;;;;;;;15.90;48.23;98368.31;1861017;77;21145;-64
2021/05/13 12:39:04;;;;;;;4.40;2.30;;;;;;;15.75;49.28;98372.95;1870494;76;22136;-67
2021/05/13 12:41:37;;;;;;;4.53;1.90;;;;;;;15.69;49.72;98362.64;1868632;76;28191;-67
2021/05/13 12:44:16;;;;;;;5.17;2.20;;;;;;;15.64;50.33;98369.65;1847665;76;28343;-66
2021/05/13 12:46:49;;;;;;;2.40;1.65;;;;;;;15.57;50.81;98394.05;1870661;76;22599;-70